sensor_id;sensor_type;location;lat;lon;timestamp;temperature;humidity
71173;DHT22;58875;51.996;4.504;2024-03-02T00:02:14;7.41;84.30
71173;DHT22;58875;51.996;4.504;2024-03-02T00:04:40;7.35;84.52
71173;DHT22;58875;51.996;4.504;2024-03-02T00:07:06;7.32;84.65
71173;DHT22;58875;51.996;4.504;2024-03-02T00:09:32;7.25;84.53
71173;DHT22;58875;51.996;4.504;2024-03-02T00:12:00;7.30;84.52
71173;DHT22;58875;51.996;4.504;2024-03-02T00:14:27;7.27;84.48
71173;DHT22;58875;51.996;4.504;2024-03-02T00:16:55;7.30;84.36
71173;DHT22;58875;51.996;4.504;2024-03-02T00:19:21;7.24;84.39
71173;DHT22;58875;51.996;4.504;2024-03-02T00:21:46;7.20;84.39
71173;DHT22;58875;51.996;4.504;2024-03-02T00:24:32;7.17;84.43
71173;DHT22;58875;51.996;4.504;2024-03-02T00:26:58;7.15;84.42
71173;DHT22;58875;51.996;4.504;2024-03-02T00:29:25;7.15;84.57
71173;DHT22;58875;51.996;4.504;2024-03-02T00:31:51;7.18;84.67
71173;DHT22;58875;51.996;4.504;2024-03-02T00:34:17;7.24;84.39
71173;DHT22;58875;51.996;4.504;2024-03-02T00:36:44;7.18;84.16
71173;DHT22;58875;51.996;4.504;2024-03-02T00:39:12;7.17;84.18
71173;DHT22;58875;51.996;4.504;2024-03-02T00:41:41;7.15;84.33
71173;DHT22;58875;51.996;4.504;2024-03-02T00:44:12;7.21;84.09
71173;DHT22;58875;51.996;4.504;2024-03-02T00:46:56;7.15;84.14
71173;DHT22;58875;51.996;4.504;2024-03-02T00:49:25;7.15;84.10
71173;DHT22;58875;51.996;4.504;2024-03-02T00:51:53;7.07;84.16
71173;DHT22;58875;51.996;4.504;2024-03-02T00:54:21;7.08;83.93
71173;DHT22;58875;51.996;4.504;2024-03-02T00:56:48;7.10;84.36
71173;DHT22;58875;51.996;4.504;2024-03-02T00:59:14;7.21;83.95
71173;DHT22;58875;51.996;4.504;2024-03-02T01:01:40;7.10;83.54
71173;DHT22;58875;51.996;4.504;2024-03-02T01:04:06;7.07;83.99
71173;DHT22;58875;51.996;4.504;2024-03-02T01:06:31;7.10;83.95
71173;DHT22;58875;51.996;4.504;2024-03-02T01:08:57;7.14;83.77
71173;DHT22;58875;51.996;4.504;2024-03-02T01:11:22;7.13;83.67
71173;DHT22;58875;51.996;4.504;2024-03-02T01:13:48;7.17;83.53
71173;DHT22;58875;51.996;4.504;2024-03-02T01:16:14;7.14;83.25
71173;DHT22;58875;51.996;4.504;2024-03-02T01:18:41;7.17;83.49
71173;DHT22;58875;51.996;4.504;2024-03-02T01:21:07;7.20;83.50
71173;DHT22;58875;51.996;4.504;2024-03-02T01:23:33;7.08;83.42
71173;DHT22;58875;51.996;4.504;2024-03-02T01:25:58;7.18;83.30
71173;DHT22;58875;51.996;4.504;2024-03-02T01:28:24;7.13;83.27
71173;DHT22;58875;51.996;4.504;2024-03-02T01:30:50;7.14;83.04
71173;DHT22;58875;51.996;4.504;2024-03-02T01:33:19;7.14;83.17
71173;DHT22;58875;51.996;4.504;2024-03-02T01:35:45;7.14;83.30
71173;DHT22;58875;51.996;4.504;2024-03-02T01:38:11;7.10;83.06
71173;DHT22;58875;51.996;4.504;2024-03-02T01:40:37;7.08;83.13
71173;DHT22;58875;51.996;4.504;2024-03-02T01:43:04;7.11;83.20
71173;DHT22;58875;51.996;4.504;2024-03-02T01:45:30;7.20;83.05
71173;DHT22;58875;51.996;4.504;2024-03-02T01:47:56;7.17;82.99
71173;DHT22;58875;51.996;4.504;2024-03-02T01:50:29;7.17;83.02
71173;DHT22;58875;51.996;4.504;2024-03-02T01:52:56;7.15;83.23
71173;DHT22;58875;51.996;4.504;2024-03-02T01:55:21;7.13;83.62
71173;DHT22;58875;51.996;4.504;2024-03-02T01:57:48;7.15;83.82
71173;DHT22;58875;51.996;4.504;2024-03-02T02:00:16;7.11;83.64
71173;DHT22;58875;51.996;4.504;2024-03-02T02:02:43;7.13;83.75
71173;DHT22;58875;51.996;4.504;2024-03-02T02:05:08;7.08;83.75
71173;DHT22;58875;51.996;4.504;2024-03-02T02:07:35;7.13;83.96
71173;DHT22;58875;51.996;4.504;2024-03-02T02:10:01;7.17;83.69
71173;DHT22;58875;51.996;4.504;2024-03-02T02:12:26;7.07;83.56
71173;DHT22;58875;51.996;4.504;2024-03-02T02:14:52;7.13;83.74
71173;DHT22;58875;51.996;4.504;2024-03-02T02:17:18;7.14;83.79
71173;DHT22;58875;51.996;4.504;2024-03-02T02:19:43;7.13;83.57
71173;DHT22;58875;51.996;4.504;2024-03-02T02:22:12;7.18;83.63
71173;DHT22;58875;51.996;4.504;2024-03-02T02:24:41;7.13;83.54
71173;DHT22;58875;51.996;4.504;2024-03-02T02:27:08;7.17;83.61
71173;DHT22;58875;51.996;4.504;2024-03-02T02:29:35;7.15;83.65
71173;DHT22;58875;51.996;4.504;2024-03-02T02:32:00;7.17;83.41
71173;DHT22;58875;51.996;4.504;2024-03-02T02:34:26;7.15;83.31
71173;DHT22;58875;51.996;4.504;2024-03-02T02:36:52;7.20;83.15
71173;DHT22;58875;51.996;4.504;2024-03-02T02:39:21;7.20;82.93
71173;DHT22;58875;51.996;4.504;2024-03-02T02:41:48;7.15;82.81
71173;DHT22;58875;51.996;4.504;2024-03-02T02:44:14;7.15;82.83
71173;DHT22;58875;51.996;4.504;2024-03-02T02:46:40;7.18;82.69
71173;DHT22;58875;51.996;4.504;2024-03-02T02:49:06;7.14;82.41
71173;DHT22;58875;51.996;4.504;2024-03-02T02:51:31;7.13;82.28
71173;DHT22;58875;51.996;4.504;2024-03-02T02:53:57;7.14;82.46
71173;DHT22;58875;51.996;4.504;2024-03-02T02:56:22;7.04;82.55
71173;DHT22;58875;51.996;4.504;2024-03-02T02:58:48;7.05;82.65
71173;DHT22;58875;51.996;4.504;2024-03-02T03:01:15;7.05;82.67
71173;DHT22;58875;51.996;4.504;2024-03-02T03:03:46;7.07;82.64
71173;DHT22;58875;51.996;4.504;2024-03-02T03:06:12;7.13;82.65
71173;DHT22;58875;51.996;4.504;2024-03-02T03:08:38;7.17;82.78
71173;DHT22;58875;51.996;4.504;2024-03-02T03:11:04;7.14;82.69
71173;DHT22;58875;51.996;4.504;2024-03-02T03:13:31;7.21;82.60
71173;DHT22;58875;51.996;4.504;2024-03-02T03:15:57;7.22;82.62
71173;DHT22;58875;51.996;4.504;2024-03-02T03:18:22;7.22;82.42
71173;DHT22;58875;51.996;4.504;2024-03-02T03:20:48;7.31;82.58
71173;DHT22;58875;51.996;4.504;2024-03-02T03:23:13;7.34;82.16
71173;DHT22;58875;51.996;4.504;2024-03-02T03:25:44;7.35;82.14
71173;DHT22;58875;51.996;4.504;2024-03-02T03:28:10;7.34;82.15
71173;DHT22;58875;51.996;4.504;2024-03-02T03:30:39;7.41;82.04
71173;DHT22;58875;51.996;4.504;2024-03-02T03:33:05;7.36;81.86
71173;DHT22;58875;51.996;4.504;2024-03-02T03:35:32;7.34;81.82
71173;DHT22;58875;51.996;4.504;2024-03-02T03:37:57;7.31;81.96
71173;DHT22;58875;51.996;4.504;2024-03-02T03:40:23;7.40;82.18
71173;DHT22;58875;51.996;4.504;2024-03-02T03:42:48;7.42;81.83
71173;DHT22;58875;51.996;4.504;2024-03-02T03:45:16;7.41;81.71
71173;DHT22;58875;51.996;4.504;2024-03-02T03:47:41;7.41;81.73
71173;DHT22;58875;51.996;4.504;2024-03-02T03:50:07;7.38;81.33
71173;DHT22;58875;51.996;4.504;2024-03-02T03:52:33;7.38;81.27
71173;DHT22;58875;51.996;4.504;2024-03-02T03:54:59;7.38;81.33
71173;DHT22;58875;51.996;4.504;2024-03-02T03:57:25;7.44;81.37
71173;DHT22;58875;51.996;4.504;2024-03-02T03:59:51;7.45;81.29
71173;DHT22;58875;51.996;4.504;2024-03-02T04:02:16;7.40;81.24
71173;DHT22;58875;51.996;4.504;2024-03-02T04:04:42;7.28;81.26
71173;DHT22;58875;51.996;4.504;2024-03-02T04:07:07;7.34;81.59
71173;DHT22;58875;51.996;4.504;2024-03-02T04:09:32;7.41;81.52
71173;DHT22;58875;51.996;4.504;2024-03-02T04:11:58;7.42;81.20
71173;DHT22;58875;51.996;4.504;2024-03-02T04:14:23;7.27;80.98
71173;DHT22;58875;51.996;4.504;2024-03-02T04:16:49;7.31;81.26
71173;DHT22;58875;51.996;4.504;2024-03-02T04:19:14;7.36;81.12
71173;DHT22;58875;51.996;4.504;2024-03-02T04:21:40;7.32;81.14
71173;DHT22;58875;51.996;4.504;2024-03-02T04:24:06;7.24;81.06
71173;DHT22;58875;51.996;4.504;2024-03-02T04:26:31;7.20;81.32
71173;DHT22;58875;51.996;4.504;2024-03-02T04:28:57;7.24;81.15
71173;DHT22;58875;51.996;4.504;2024-03-02T04:31:22;7.17;80.98
71173;DHT22;58875;51.996;4.504;2024-03-02T04:33:48;7.20;80.94
71173;DHT22;58875;51.996;4.504;2024-03-02T04:36:14;7.20;80.86
71173;DHT22;58875;51.996;4.504;2024-03-02T04:38:39;7.21;80.82
71173;DHT22;58875;51.996;4.504;2024-03-02T04:41:05;7.14;80.82
71173;DHT22;58875;51.996;4.504;2024-03-02T04:43:32;7.13;80.71
71173;DHT22;58875;51.996;4.504;2024-03-02T04:46:01;7.15;81.07
71173;DHT22;58875;51.996;4.504;2024-03-02T04:48:26;7.15;80.86
71173;DHT22;58875;51.996;4.504;2024-03-02T04:50:52;7.24;81.03
71173;DHT22;58875;51.996;4.504;2024-03-02T04:53:18;7.21;80.72
71173;DHT22;58875;51.996;4.504;2024-03-02T04:55:43;7.17;81.03
71173;DHT22;58875;51.996;4.504;2024-03-02T04:58:09;7.14;80.71
71173;DHT22;58875;51.996;4.504;2024-03-02T05:00:35;7.22;81.02
71173;DHT22;58875;51.996;4.504;2024-03-02T05:03:01;7.24;80.63
71173;DHT22;58875;51.996;4.504;2024-03-02T05:05:27;7.10;80.70
71173;DHT22;58875;51.996;4.504;2024-03-02T05:07:53;7.22;80.75
71173;DHT22;58875;51.996;4.504;2024-03-02T05:10:18;7.22;80.56
71173;DHT22;58875;51.996;4.504;2024-03-02T05:12:44;7.27;80.63
71173;DHT22;58875;51.996;4.504;2024-03-02T05:15:14;7.28;80.52
71173;DHT22;58875;51.996;4.504;2024-03-02T05:17:40;7.21;80.41
71173;DHT22;58875;51.996;4.504;2024-03-02T05:20:09;7.22;80.47
71173;DHT22;58875;51.996;4.504;2024-03-02T05:22:35;7.13;80.65
71173;DHT22;58875;51.996;4.504;2024-03-02T05:25:01;7.13;80.71
71173;DHT22;58875;51.996;4.504;2024-03-02T05:27:27;7.08;80.80
71173;DHT22;58875;51.996;4.504;2024-03-02T05:29:53;7.10;80.83
71173;DHT22;58875;51.996;4.504;2024-03-02T05:32:18;7.05;80.91
71173;DHT22;58875;51.996;4.504;2024-03-02T05:34:44;7.10;81.08
71173;DHT22;58875;51.996;4.504;2024-03-02T05:37:09;7.14;81.14
71173;DHT22;58875;51.996;4.504;2024-03-02T05:39:35;7.04;80.68
71173;DHT22;58875;51.996;4.504;2024-03-02T05:42:00;6.99;80.98
71173;DHT22;58875;51.996;4.504;2024-03-02T05:44:26;6.93;81.14
71173;DHT22;58875;51.996;4.504;2024-03-02T05:46:52;6.93;81.39
71173;DHT22;58875;51.996;4.504;2024-03-02T05:49:17;7.01;81.25
71173;DHT22;58875;51.996;4.504;2024-03-02T05:51:43;7.00;80.96
71173;DHT22;58875;51.996;4.504;2024-03-02T05:54:10;7.03;81.06
71173;DHT22;58875;51.996;4.504;2024-03-02T05:56:35;7.00;81.06
71173;DHT22;58875;51.996;4.504;2024-03-02T05:59:01;7.04;81.21
71173;DHT22;58875;51.996;4.504;2024-03-02T06:01:43;7.13;80.84
71173;DHT22;58875;51.996;4.504;2024-03-02T06:04:12;7.15;80.61
71173;DHT22;58875;51.996;4.504;2024-03-02T06:06:41;7.18;80.09
71173;DHT22;58875;51.996;4.504;2024-03-02T06:09:07;7.15;80.07
71173;DHT22;58875;51.996;4.504;2024-03-02T06:11:39;7.13;80.26
71173;DHT22;58875;51.996;4.504;2024-03-02T06:14:07;7.17;80.19
71173;DHT22;58875;51.996;4.504;2024-03-02T06:16:33;7.07;79.93
71173;DHT22;58875;51.996;4.504;2024-03-02T06:18:59;7.08;80.32
71173;DHT22;58875;51.996;4.504;2024-03-02T06:21:25;7.11;79.79
71173;DHT22;58875;51.996;4.504;2024-03-02T06:23:50;7.08;79.82
71173;DHT22;58875;51.996;4.504;2024-03-02T06:26:16;7.15;79.72
71173;DHT22;58875;51.996;4.504;2024-03-02T06:28:41;7.20;79.73
71173;DHT22;58875;51.996;4.504;2024-03-02T06:31:07;7.22;79.55
71173;DHT22;58875;51.996;4.504;2024-03-02T06:33:33;7.21;79.40
71173;DHT22;58875;51.996;4.504;2024-03-02T06:35:58;7.21;79.53
71173;DHT22;58875;51.996;4.504;2024-03-02T06:38:24;7.25;79.47
71173;DHT22;58875;51.996;4.504;2024-03-02T06:40:49;7.20;79.10
71173;DHT22;58875;51.996;4.504;2024-03-02T06:43:15;7.21;79.34
71173;DHT22;58875;51.996;4.504;2024-03-02T06:45:40;7.28;79.13
71173;DHT22;58875;51.996;4.504;2024-03-02T06:48:06;7.30;78.95
71173;DHT22;58875;51.996;4.504;2024-03-02T06:50:32;7.32;78.75
71173;DHT22;58875;51.996;4.504;2024-03-02T06:52:57;7.24;78.65
71173;DHT22;58875;51.996;4.504;2024-03-02T06:55:23;7.15;78.77
71173;DHT22;58875;51.996;4.504;2024-03-02T06:57:50;7.15;78.75
71173;DHT22;58875;51.996;4.504;2024-03-02T07:00:16;7.10;78.80
71173;DHT22;58875;51.996;4.504;2024-03-02T07:02:43;7.00;78.94
71173;DHT22;58875;51.996;4.504;2024-03-02T07:05:10;7.03;78.95
71173;DHT22;58875;51.996;4.504;2024-03-02T07:07:35;6.91;79.01
71173;DHT22;58875;51.996;4.504;2024-03-02T07:10:05;6.87;79.46
71173;DHT22;58875;51.996;4.504;2024-03-02T07:12:33;6.90;79.08
71173;DHT22;58875;51.996;4.504;2024-03-02T07:14:58;6.86;79.10
71173;DHT22;58875;51.996;4.504;2024-03-02T07:17:31;6.90;79.15
71173;DHT22;58875;51.996;4.504;2024-03-02T07:19:57;6.89;79.01
71173;DHT22;58875;51.996;4.504;2024-03-02T07:22:22;6.91;79.14
71173;DHT22;58875;51.996;4.504;2024-03-02T07:24:48;6.93;79.14
71173;DHT22;58875;51.996;4.504;2024-03-02T07:27:15;6.93;78.91
71173;DHT22;58875;51.996;4.504;2024-03-02T07:29:42;6.93;79.24
71173;DHT22;58875;51.996;4.504;2024-03-02T07:32:09;6.96;79.13
71173;DHT22;58875;51.996;4.504;2024-03-02T07:34:35;6.93;78.88
71173;DHT22;58875;51.996;4.504;2024-03-02T07:37:01;7.00;78.74
71173;DHT22;58875;51.996;4.504;2024-03-02T07:39:27;7.17;78.57
71173;DHT22;58875;51.996;4.504;2024-03-02T07:41:53;7.56;77.79
71173;DHT22;58875;51.996;4.504;2024-03-02T07:44:19;8.26;76.19
71173;DHT22;58875;51.996;4.504;2024-03-02T07:46:46;8.89;73.86
71173;DHT22;58875;51.996;4.504;2024-03-02T07:49:12;9.19;72.44
71173;DHT22;58875;51.996;4.504;2024-03-02T07:51:41;9.08;72.18
71173;DHT22;58875;51.996;4.504;2024-03-02T07:56:56;8.58;73.83
71173;DHT22;58875;51.996;4.504;2024-03-02T07:59:21;8.43;73.90
71173;DHT22;58875;51.996;4.504;2024-03-02T08:01:48;8.37;74.39
71173;DHT22;58875;51.996;4.504;2024-03-02T08:04:14;8.55;74.47
71173;DHT22;58875;51.996;4.504;2024-03-02T08:06:40;8.86;74.00
71173;DHT22;58875;51.996;4.504;2024-03-02T08:09:05;8.65;73.28
71173;DHT22;58875;51.996;4.504;2024-03-02T08:11:35;8.74;73.92
71173;DHT22;58875;51.996;4.504;2024-03-02T08:14:01;8.74;74.01
71173;DHT22;58875;51.996;4.504;2024-03-02T08:16:26;8.48;74.00
71173;DHT22;58875;51.996;4.504;2024-03-02T08:18:52;8.60;74.25
71173;DHT22;58875;51.996;4.504;2024-03-02T08:21:18;8.78;73.35
71173;DHT22;58875;51.996;4.504;2024-03-02T08:23:44;8.89;73.43
71173;DHT22;58875;51.996;4.504;2024-03-02T08:26:11;8.92;73.19
71173;DHT22;58875;51.996;4.504;2024-03-02T08:28:37;9.01;72.97
71173;DHT22;58875;51.996;4.504;2024-03-02T08:31:05;9.33;71.74
71173;DHT22;58875;51.996;4.504;2024-03-02T08:33:31;9.80;70.38
71173;DHT22;58875;51.996;4.504;2024-03-02T08:35:57;10.57;68.43
71173;DHT22;58875;51.996;4.504;2024-03-02T08:38:22;11.47;66.28
71173;DHT22;58875;51.996;4.504;2024-03-02T08:40:50;11.95;63.27
71173;DHT22;58875;51.996;4.504;2024-03-02T08:43:16;11.90;62.43
71173;DHT22;58875;51.996;4.504;2024-03-02T08:45:42;12.29;62.71
71173;DHT22;58875;51.996;4.504;2024-03-02T08:48:08;12.68;61.65
71173;DHT22;58875;51.996;4.504;2024-03-02T08:50:34;12.74;60.09
71173;DHT22;58875;51.996;4.504;2024-03-02T08:53:00;12.25;61.09
71173;DHT22;58875;51.996;4.504;2024-03-02T08:55:26;11.86;62.71
71173;DHT22;58875;51.996;4.504;2024-03-02T08:57:52;11.27;64.58
71173;DHT22;58875;51.996;4.504;2024-03-02T09:00:18;10.55;66.31
71173;DHT22;58875;51.996;4.504;2024-03-02T09:02:44;10.08;68.28
71173;DHT22;58875;51.996;4.504;2024-03-02T09:05:10;9.57;69.38
71173;DHT22;58875;51.996;4.504;2024-03-02T09:07:36;9.27;70.80
71173;DHT22;58875;51.996;4.504;2024-03-02T09:10:07;9.16;71.08
71173;DHT22;58875;51.996;4.504;2024-03-02T09:12:33;9.27;71.95
71173;DHT22;58875;51.996;4.504;2024-03-02T09:15:00;9.35;72.05
71173;DHT22;58875;51.996;4.504;2024-03-02T09:17:26;9.56;71.49
71173;DHT22;58875;51.996;4.504;2024-03-02T09:19:51;9.61;70.97
71173;DHT22;58875;51.996;4.504;2024-03-02T09:22:20;9.74;70.73
71173;DHT22;58875;51.996;4.504;2024-03-02T09:24:45;9.81;70.28
71173;DHT22;58875;51.996;4.504;2024-03-02T09:27:11;9.80;70.39
71173;DHT22;58875;51.996;4.504;2024-03-02T09:29:36;9.69;69.62
71173;DHT22;58875;51.996;4.504;2024-03-02T09:32:02;9.73;69.72
71173;DHT22;58875;51.996;4.504;2024-03-02T09:34:28;9.67;69.44
71173;DHT22;58875;51.996;4.504;2024-03-02T09:36:54;9.71;68.70
71173;DHT22;58875;51.996;4.504;2024-03-02T09:39:19;9.73;68.84
71173;DHT22;58875;51.996;4.504;2024-03-02T09:41:45;9.77;69.01
71173;DHT22;58875;51.996;4.504;2024-03-02T09:44:11;9.94;68.91
71173;DHT22;58875;51.996;4.504;2024-03-02T09:46:37;10.05;68.37
71173;DHT22;58875;51.996;4.504;2024-03-02T09:49:02;10.18;69.11
71173;DHT22;58875;51.996;4.504;2024-03-02T09:51:28;10.26;68.15
71173;DHT22;58875;51.996;4.504;2024-03-02T09:53:55;10.38;67.47
71173;DHT22;58875;51.996;4.504;2024-03-02T09:56:23;10.36;67.50
71173;DHT22;58875;51.996;4.504;2024-03-02T09:58:49;10.39;67.70
71173;DHT22;58875;51.996;4.504;2024-03-02T10:01:14;10.39;67.10
71173;DHT22;58875;51.996;4.504;2024-03-02T10:03:40;10.55;67.26
71173;DHT22;58875;51.996;4.504;2024-03-02T10:06:26;10.66;67.07
71173;DHT22;58875;51.996;4.504;2024-03-02T10:08:53;10.66;66.34
71173;DHT22;58875;51.996;4.504;2024-03-02T10:11:34;10.57;66.30
71173;DHT22;58875;51.996;4.504;2024-03-02T10:16:37;10.45;66.85
71173;DHT22;58875;51.996;4.504;2024-03-02T10:19:22;10.66;67.30
71173;DHT22;58875;51.996;4.504;2024-03-02T10:21:52;10.89;66.87
71173;DHT22;58875;51.996;4.504;2024-03-02T10:24:19;11.03;65.75
71173;DHT22;58875;51.996;4.504;2024-03-02T10:26:45;11.03;65.49
71173;DHT22;58875;51.996;4.504;2024-03-02T10:29:11;10.99;64.84
71173;DHT22;58875;51.996;4.504;2024-03-02T10:31:42;11.06;64.52
71173;DHT22;58875;51.996;4.504;2024-03-02T10:34:10;11.13;64.62
71173;DHT22;58875;51.996;4.504;2024-03-02T10:36:37;11.16;63.96
71173;DHT22;58875;51.996;4.504;2024-03-02T10:39:07;11.13;64.14
71173;DHT22;58875;51.996;4.504;2024-03-02T10:41:35;10.99;64.36
71173;DHT22;58875;51.996;4.504;2024-03-02T10:44:05;11.13;64.05
71173;DHT22;58875;51.996;4.504;2024-03-02T10:46:33;11.10;63.74
71173;DHT22;58875;51.996;4.504;2024-03-02T10:49:00;11.10;63.00
71173;DHT22;58875;51.996;4.504;2024-03-02T10:51:30;11.07;63.11
71173;DHT22;58875;51.996;4.504;2024-03-02T10:54:00;10.90;63.28
71173;DHT22;58875;51.996;4.504;2024-03-02T10:56:34;10.75;63.41
71173;DHT22;58875;51.996;4.504;2024-03-02T10:59:15;10.80;63.44
71173;DHT22;58875;51.996;4.504;2024-03-02T11:01:43;10.93;64.08
71173;DHT22;58875;51.996;4.504;2024-03-02T11:04:13;11.01;63.30
71173;DHT22;58875;51.996;4.504;2024-03-02T11:06:48;11.07;62.42
71173;DHT22;58875;51.996;4.504;2024-03-02T11:09:16;11.35;62.16
71173;DHT22;58875;51.996;4.504;2024-03-02T11:11:43;11.54;60.76
71173;DHT22;58875;51.996;4.504;2024-03-02T11:14:17;11.55;59.98
71173;DHT22;58875;51.996;4.504;2024-03-02T11:16:46;11.42;60.35
71173;DHT22;58875;51.996;4.504;2024-03-02T11:19:13;11.26;61.10
71173;DHT22;58875;51.996;4.504;2024-03-02T11:21:40;11.38;61.75
71173;DHT22;58875;51.996;4.504;2024-03-02T11:24:30;11.13;59.47
71173;DHT22;58875;51.996;4.504;2024-03-02T11:27:03;11.21;60.73
71173;DHT22;58875;51.996;4.504;2024-03-02T11:32:14;11.26;60.32
71173;DHT22;58875;51.996;4.504;2024-03-02T11:34:46;11.30;60.49
71173;DHT22;58875;51.996;4.504;2024-03-02T11:37:13;11.55;59.80
71173;DHT22;58875;51.996;4.504;2024-03-02T11:39:39;11.50;59.05
71173;DHT22;58875;51.996;4.504;2024-03-02T11:42:06;11.75;59.02
71173;DHT22;58875;51.996;4.504;2024-03-02T11:44:35;12.03;58.80
71173;DHT22;58875;51.996;4.504;2024-03-02T11:47:02;12.20;58.23
71173;DHT22;58875;51.996;4.504;2024-03-02T11:49:49;12.39;57.35
71173;DHT22;58875;51.996;4.504;2024-03-02T11:52:16;12.56;57.88
71173;DHT22;58875;51.996;4.504;2024-03-02T11:54:45;12.68;57.65
71173;DHT22;58875;51.996;4.504;2024-03-02T11:57:18;12.84;58.02
71173;DHT22;58875;51.996;4.504;2024-03-02T11:59:45;12.97;57.36
71173;DHT22;58875;51.996;4.504;2024-03-02T12:02:20;12.99;56.99
71173;DHT22;58875;51.996;4.504;2024-03-02T12:04:47;12.84;56.21
71173;DHT22;58875;51.996;4.504;2024-03-02T12:07:22;12.74;56.33
71173;DHT22;58875;51.996;4.504;2024-03-02T12:09:48;12.77;57.01
71173;DHT22;58875;51.996;4.504;2024-03-02T12:12:14;12.74;57.33
71173;DHT22;58875;51.996;4.504;2024-03-02T12:14:53;12.84;57.59
71173;DHT22;58875;51.996;4.504;2024-03-02T12:17:21;12.80;57.33
71173;DHT22;58875;51.996;4.504;2024-03-02T12:19:47;12.95;57.00
71173;DHT22;58875;51.996;4.504;2024-03-02T12:22:13;12.97;56.56
71173;DHT22;58875;51.996;4.504;2024-03-02T12:24:41;13.22;57.18
71173;DHT22;58875;51.996;4.504;2024-03-02T12:27:12;13.28;56.58
71173;DHT22;58875;51.996;4.504;2024-03-02T12:29:38;13.43;55.33
71173;DHT22;58875;51.996;4.504;2024-03-02T12:32:05;13.20;56.06
71173;DHT22;58875;51.996;4.504;2024-03-02T12:34:31;13.11;56.28
71173;DHT22;58875;51.996;4.504;2024-03-02T12:36:58;13.14;55.81
71173;DHT22;58875;51.996;4.504;2024-03-02T12:39:24;13.14;54.38
71173;DHT22;58875;51.996;4.504;2024-03-02T12:41:50;13.32;55.31
71173;DHT22;58875;51.996;4.504;2024-03-02T12:44:19;13.46;54.42
71173;DHT22;58875;51.996;4.504;2024-03-02T12:46:46;13.39;54.03
71173;DHT22;58875;51.996;4.504;2024-03-02T12:49:13;13.32;53.94
71173;DHT22;58875;51.996;4.504;2024-03-02T12:51:42;13.29;54.64
71173;DHT22;58875;51.996;4.504;2024-03-02T12:54:10;13.38;55.35
71173;DHT22;58875;51.996;4.504;2024-03-02T12:56:36;13.40;54.34
71173;DHT22;58875;51.996;4.504;2024-03-02T12:59:03;13.30;54.75
71173;DHT22;58875;51.996;4.504;2024-03-02T13:01:28;13.32;54.89
71173;DHT22;58875;51.996;4.504;2024-03-02T13:03:54;13.42;55.24
71173;DHT22;58875;51.996;4.504;2024-03-02T13:06:21;13.55;54.46
71173;DHT22;58875;51.996;4.504;2024-03-02T13:08:50;13.74;54.23
71173;DHT22;58875;51.996;4.504;2024-03-02T13:11:16;13.71;54.34
71173;DHT22;58875;51.996;4.504;2024-03-02T13:13:42;13.43;54.89
71173;DHT22;58875;51.996;4.504;2024-03-02T13:16:12;13.42;55.58
71173;DHT22;58875;51.996;4.504;2024-03-02T13:18:42;13.34;55.98
71173;DHT22;58875;51.996;4.504;2024-03-02T13:21:08;13.26;54.95
71173;DHT22;58875;51.996;4.504;2024-03-02T13:23:34;13.23;54.82
71173;DHT22;58875;51.996;4.504;2024-03-02T13:26:05;13.23;54.95
71173;DHT22;58875;51.996;4.504;2024-03-02T13:28:32;13.18;55.04
71173;DHT22;58875;51.996;4.504;2024-03-02T13:30:58;13.11;54.97
71173;DHT22;58875;51.996;4.504;2024-03-02T13:33:24;13.23;55.51
71173;DHT22;58875;51.996;4.504;2024-03-02T13:35:52;13.30;55.17
71173;DHT22;58875;51.996;4.504;2024-03-02T13:38:22;13.30;55.29
71173;DHT22;58875;51.996;4.504;2024-03-02T13:40:49;13.35;55.64
71173;DHT22;58875;51.996;4.504;2024-03-02T13:43:17;13.29;55.85
71173;DHT22;58875;51.996;4.504;2024-03-02T13:45:45;13.12;56.84
71173;DHT22;58875;51.996;4.504;2024-03-02T13:48:10;13.07;57.02
71173;DHT22;58875;51.996;4.504;2024-03-02T13:50:36;13.04;57.46
71173;DHT22;58875;51.996;4.504;2024-03-02T13:53:01;13.15;57.54
71173;DHT22;58875;51.996;4.504;2024-03-02T13:55:28;13.28;57.77
71173;DHT22;58875;51.996;4.504;2024-03-02T13:57:54;13.30;56.87
71173;DHT22;58875;51.996;4.504;2024-03-02T14:00:20;13.36;57.73
71173;DHT22;58875;51.996;4.504;2024-03-02T14:02:46;13.34;57.79
71173;DHT22;58875;51.996;4.504;2024-03-02T14:05:14;13.38;57.77
71173;DHT22;58875;51.996;4.504;2024-03-02T14:07:42;13.38;57.15
71173;DHT22;58875;51.996;4.504;2024-03-02T14:10:07;13.34;57.17
71173;DHT22;58875;51.996;4.504;2024-03-02T14:12:33;13.38;57.64
71173;DHT22;58875;51.996;4.504;2024-03-02T14:14:59;13.34;58.19
71173;DHT22;58875;51.996;4.504;2024-03-02T14:17:28;13.30;57.41
71173;DHT22;58875;51.996;4.504;2024-03-02T14:19:53;13.36;57.89
71173;DHT22;58875;51.996;4.504;2024-03-02T14:22:22;13.38;57.46
71173;DHT22;58875;51.996;4.504;2024-03-02T14:24:48;13.45;57.86
71173;DHT22;58875;51.996;4.504;2024-03-02T14:27:14;13.50;58.19
71173;DHT22;58875;51.996;4.504;2024-03-02T14:29:42;13.58;57.39
71173;DHT22;58875;51.996;4.504;2024-03-02T14:32:07;13.69;56.75
71173;DHT22;58875;51.996;4.504;2024-03-02T14:34:33;13.77;56.92
71173;DHT22;58875;51.996;4.504;2024-03-02T14:36:59;13.71;56.11
71173;DHT22;58875;51.996;4.504;2024-03-02T14:39:25;13.79;56.64
71173;DHT22;58875;51.996;4.504;2024-03-02T14:41:51;13.89;57.05
71173;DHT22;58875;51.996;4.504;2024-03-02T14:44:17;13.90;57.15
71173;DHT22;58875;51.996;4.504;2024-03-02T14:46:43;13.76;56.89
71173;DHT22;58875;51.996;4.504;2024-03-02T14:49:12;13.67;56.84
71173;DHT22;58875;51.996;4.504;2024-03-02T14:51:38;13.67;57.14
71173;DHT22;58875;51.996;4.504;2024-03-02T14:54:03;13.62;56.85
71173;DHT22;58875;51.996;4.504;2024-03-02T14:56:29;13.46;56.99
71173;DHT22;58875;51.996;4.504;2024-03-02T14:58:55;13.43;57.24
71173;DHT22;58875;51.996;4.504;2024-03-02T15:01:20;13.38;57.63
71173;DHT22;58875;51.996;4.504;2024-03-02T15:03:49;13.39;57.81
71173;DHT22;58875;51.996;4.504;2024-03-02T15:06:15;13.36;57.35
71173;DHT22;58875;51.996;4.504;2024-03-02T15:08:41;13.35;57.63
71173;DHT22;58875;51.996;4.504;2024-03-02T15:11:08;13.32;57.79
71173;DHT22;58875;51.996;4.504;2024-03-02T15:13:34;13.30;57.72
71173;DHT22;58875;51.996;4.504;2024-03-02T15:15:59;13.25;58.25
71173;DHT22;58875;51.996;4.504;2024-03-02T15:18:25;13.34;58.27
71173;DHT22;58875;51.996;4.504;2024-03-02T15:20:50;13.36;58.03
71173;DHT22;58875;51.996;4.504;2024-03-02T15:23:16;13.36;58.21
71173;DHT22;58875;51.996;4.504;2024-03-02T15:25:42;13.53;57.76
71173;DHT22;58875;51.996;4.504;2024-03-02T15:28:07;13.53;57.39
71173;DHT22;58875;51.996;4.504;2024-03-02T15:30:33;13.67;57.15
71173;DHT22;58875;51.996;4.504;2024-03-02T15:32:59;13.76;57.45
71173;DHT22;58875;51.996;4.504;2024-03-02T15:35:24;13.83;56.51
71173;DHT22;58875;51.996;4.504;2024-03-02T15:37:51;13.77;56.93
71173;DHT22;58875;51.996;4.504;2024-03-02T15:40:16;13.76;57.40
71173;DHT22;58875;51.996;4.504;2024-03-02T15:42:42;13.69;57.13
71173;DHT22;58875;51.996;4.504;2024-03-02T15:45:07;13.48;57.26
71173;DHT22;58875;51.996;4.504;2024-03-02T15:47:33;13.49;58.14